sensor_id;sensor_type;location;lat;lon;timestamp;pressure;altitude;pressure_sealevel;temperature;humidity
74913;BME280;63878;55.624;37.304;2023-04-09T00:02:56;99959.34;;;4.56;45.01
74913;BME280;63878;55.624;37.304;2023-04-09T00:12:56;99959.81;;;4.64;47.54
74913;BME280;63878;55.624;37.304;2023-04-09T00:22:57;99931.34;;;4.41;45.56
74913;BME280;63878;55.624;37.304;2023-04-09T00:32:58;99960.41;;;4.35;47.35
74913;BME280;63878;55.624;37.304;2023-04-09T00:42:58;99958.56;;;4.19;46.66
74913;BME280;63878;55.624;37.304;2023-04-09T00:53:00;99950.72;;;4.19;46.41
74913;BME280;63878;55.624;37.304;2023-04-09T01:03:01;99950.25;;;4.11;46.29
74913;BME280;63878;55.624;37.304;2023-04-09T01:33:59;99938.97;;;4.11;48.03
74913;BME280;63878;55.624;37.304;2023-04-09T01:44:02;99955.25;;;4.16;47.43
74913;BME280;63878;55.624;37.304;2023-04-09T01:54:04;99961.75;;;3.90;47.63
74913;BME280;63878;55.624;37.304;2023-04-09T02:04:10;99959.22;;;3.69;47.65
74913;BME280;63878;55.624;37.304;2023-04-09T02:14:14;99952.56;;;3.62;48.75
74913;BME280;63878;55.624;37.304;2023-04-09T02:24:15;99940.91;;;3.13;50.11
74913;BME280;63878;55.624;37.304;2023-04-09T02:34:16;99950.31;;;3.36;49.56
74913;BME280;63878;55.624;37.304;2023-04-09T02:44:16;99956.19;;;3.41;49.48
74913;BME280;63878;55.624;37.304;2023-04-09T02:54:16;99958.88;;;3.39;49.59
74913;BME280;63878;55.624;37.304;2023-04-09T03:04:17;99956.19;;;3.41;48.98
74913;BME280;63878;55.624;37.304;2023-04-09T03:14:17;99965.56;;;3.45;49.53
74913;BME280;63878;55.624;37.304;2023-04-09T03:24:18;99962.09;;;3.05;50.70
74913;BME280;63878;55.624;37.304;2023-04-09T03:34:18;99967.94;;;3.31;49.96
74913;BME280;63878;55.624;37.304;2023-04-09T03:44:19;99956.06;;;3.63;49.60
74913;BME280;63878;55.624;37.304;2023-04-09T03:54:19;99970.31;;;3.37;49.52
74913;BME280;63878;55.624;37.304;2023-04-09T04:04:20;99965.13;;;3.54;49.02
74913;BME280;63878;55.624;37.304;2023-04-09T04:14:20;99952.34;;;3.86;48.78
74913;BME280;63878;55.624;37.304;2023-04-09T04:24:21;99964.09;;;4.13;48.99
74913;BME280;63878;55.624;37.304;2023-04-09T04:34:21;99958.34;;;4.24;48.19
74913;BME280;63878;55.624;37.304;2023-04-09T04:44:22;99958.75;;;3.97;49.02
74913;BME280;63878;55.624;37.304;2023-04-09T04:54:22;99957.50;;;4.41;49.67
74913;BME280;63878;55.624;37.304;2023-04-09T05:04:23;99955.44;;;4.30;48.60
74913;BME280;63878;55.624;37.304;2023-04-09T05:14:23;99954.88;;;4.75;47.93
74913;BME280;63878;55.624;37.304;2023-04-09T05:24:24;99954.34;;;5.19;47.16
74913;BME280;63878;55.624;37.304;2023-04-09T05:34:24;99966.91;;;5.30;47.36
74913;BME280;63878;55.624;37.304;2023-04-09T05:44:25;99974.38;;;5.03;48.55
74913;BME280;63878;55.624;37.304;2023-04-09T05:54:25;99969.84;;;5.22;47.72
74913;BME280;63878;55.624;37.304;2023-04-09T06:04:26;99977.19;;;5.33;47.45
74913;BME280;63878;55.624;37.304;2023-04-09T06:14:27;99982.72;;;5.60;46.98
74913;BME280;63878;55.624;37.304;2023-04-09T06:24:27;99988.19;;;6.03;46.83
74913;BME280;63878;55.624;37.304;2023-04-09T06:34:27;99998.53;;;6.52;45.72
74913;BME280;63878;55.624;37.304;2023-04-09T06:44:29;99994.81;;;6.86;44.57
74913;BME280;63878;55.624;37.304;2023-04-09T06:54:29;99989.28;;;6.60;44.72
74913;BME280;63878;55.624;37.304;2023-04-09T07:04:30;100003.00;;;6.65;44.70
74913;BME280;63878;55.624;37.304;2023-04-09T07:14:30;99994.94;;;6.98;44.09
74913;BME280;63878;55.624;37.304;2023-04-09T07:24:31;100011.66;;;7.26;42.87
74913;BME280;63878;55.624;37.304;2023-04-09T07:34:32;99998.50;;;7.54;42.06
74913;BME280;63878;55.624;37.304;2023-04-09T07:44:35;100001.13;;;7.54;41.35
74913;BME280;63878;55.624;37.304;2023-04-09T07:54:36;100003.50;;;7.59;39.96
74913;BME280;63878;55.624;37.304;2023-04-09T08:04:36;99999.22;;;7.85;40.86
74913;BME280;63878;55.624;37.304;2023-04-09T08:14:37;100001.31;;;8.21;38.89
74913;BME280;63878;55.624;37.304;2023-04-09T08:24:38;99979.34;;;8.08;40.30
74913;BME280;63878;55.624;37.304;2023-04-09T08:34:38;99989.28;;;7.76;40.59
74913;BME280;63878;55.624;37.304;2023-04-09T08:44:39;99981.28;;;7.92;39.24
74913;BME280;63878;55.624;37.304;2023-04-09T08:54:40;99966.13;;;7.95;38.31
74913;BME280;63878;55.624;37.304;2023-04-09T09:04:47;99976.50;;;8.25;37.99
74913;BME280;63878;55.624;37.304;2023-04-09T09:14:47;99966.63;;;8.15;38.71
74913;BME280;63878;55.624;37.304;2023-04-09T09:24:49;99965.19;;;8.38;38.76
74913;BME280;63878;55.624;37.304;2023-04-09T09:35:04;99959.91;;;8.38;38.20
74913;BME280;63878;55.624;37.304;2023-04-09T09:45:16;99945.59;;;8.42;37.99
74913;BME280;63878;55.624;37.304;2023-04-09T09:55:17;99939.31;;;8.44;36.60
74913;BME280;63878;55.624;37.304;2023-04-09T10:05:18;99930.78;;;8.14;36.09
74913;BME280;63878;55.624;37.304;2023-04-09T10:15:19;99938.06;;;9.01;36.45
74913;BME280;63878;55.624;37.304;2023-04-09T10:25:20;99937.66;;;9.20;35.18
74913;BME280;63878;55.624;37.304;2023-04-09T10:35:24;99935.56;;;8.99;35.55
74913;BME280;63878;55.624;37.304;2023-04-09T10:45:38;99930.63;;;9.57;34.62
74913;BME280;63878;55.624;37.304;2023-04-09T10:55:41;99934.44;;;9.89;38.41
74913;BME280;63878;55.624;37.304;2023-04-09T11:05:42;99927.91;;;9.45;34.04
74913;BME280;63878;55.624;37.304;2023-04-09T11:15:45;99929.16;;;9.65;34.42
74913;BME280;63878;55.624;37.304;2023-04-09T11:25:48;99928.34;;;9.39;34.89
74913;BME280;63878;55.624;37.304;2023-04-09T11:35:49;99928.88;;;9.32;34.39
74913;BME280;63878;55.624;37.304;2023-04-09T11:45:50;99915.41;;;9.97;36.82
74913;BME280;63878;55.624;37.304;2023-04-09T11:55:52;99907.00;;;9.92;38.07
74913;BME280;63878;55.624;37.304;2023-04-09T12:05:52;99909.59;;;10.05;40.97
74913;BME280;63878;55.624;37.304;2023-04-09T12:15:53;99903.78;;;9.76;33.76
74913;BME280;63878;55.624;37.304;2023-04-09T12:25:53;99900.09;;;9.78;37.78
74913;BME280;63878;55.624;37.304;2023-04-09T12:35:54;99903.50;;;10.15;41.79
74913;BME280;63878;55.624;37.304;2023-04-09T12:45:55;99899.44;;;10.11;35.26
74913;BME280;63878;55.624;37.304;2023-04-09T12:56:15;99884.53;;;10.10;40.99
74913;BME280;63878;55.624;37.304;2023-04-09T13:06:35;99891.25;;;10.49;44.92
74913;BME280;63878;55.624;37.304;2023-04-09T13:16:56;99879.50;;;10.07;41.16
74913;BME280;63878;55.624;37.304;2023-04-09T13:26:57;99893.13;;;10.01;34.73
74913;BME280;63878;55.624;37.304;2023-04-09T13:37:01;99895.88;;;9.52;34.15
74913;BME280;63878;55.624;37.304;2023-04-09T13:47:02;99889.25;;;9.46;34.00
74913;BME280;63878;55.624;37.304;2023-04-09T13:57:21;99883.44;;;9.41;35.01
74913;BME280;63878;55.624;37.304;2023-04-09T14:07:24;99884.50;;;9.51;33.59
74913;BME280;63878;55.624;37.304;2023-04-09T14:17:25;99869.88;;;9.22;34.77
74913;BME280;63878;55.624;37.304;2023-04-09T14:27:26;99873.38;;;9.09;35.15
74913;BME280;63878;55.624;37.304;2023-04-09T14:37:26;99865.03;;;9.15;36.02
74913;BME280;63878;55.624;37.304;2023-04-09T14:47:27;99846.19;;;9.09;34.90
74913;BME280;63878;55.624;37.304;2023-04-09T14:57:27;99858.41;;;9.10;35.08
74913;BME280;63878;55.624;37.304;2023-04-09T15:07:28;99852.72;;;9.03;35.73
74913;BME280;63878;55.624;37.304;2023-04-09T15:17:30;99857.91;;;9.41;36.31
74913;BME280;63878;55.624;37.304;2023-04-09T15:27:30;99845.16;;;9.48;35.78
74913;BME280;63878;55.624;37.304;2023-04-09T15:37:34;99847.09;;;9.33;35.99
74913;BME280;63878;55.624;37.304;2023-04-09T15:47:34;99837.44;;;9.21;38.41
74913;BME280;63878;55.624;37.304;2023-04-09T15:57:35;99848.53;;;9.50;36.18
74913;BME280;63878;55.624;37.304;2023-04-09T16:07:35;99841.69;;;9.35;36.97
74913;BME280;63878;55.624;37.304;2023-04-09T16:17:36;99845.03;;;9.13;36.28
74913;BME280;63878;55.624;37.304;2023-04-09T16:27:36;99840.75;;;8.99;37.08
74913;BME280;63878;55.624;37.304;2023-04-09T16:37:37;99846.66;;;8.77;37.31
74913;BME280;63878;55.624;37.304;2023-04-09T16:47:37;99858.16;;;8.63;38.23
74913;BME280;63878;55.624;37.304;2023-04-09T16:57:38;99863.81;;;8.57;38.86
74913;BME280;63878;55.624;37.304;2023-04-09T17:07:39;99859.44;;;8.45;39.03
74913;BME280;63878;55.624;37.304;2023-04-09T17:17:40;99854.75;;;8.36;38.36
74913;BME280;63878;55.624;37.304;2023-04-09T17:27:40;99870.88;;;8.31;38.42
74913;BME280;63878;55.624;37.304;2023-04-09T17:37:41;99870.06;;;8.04;40.23
74913;BME280;63878;55.624;37.304;2023-04-09T17:47:43;99864.19;;;8.13;39.07
74913;BME280;63878;55.624;37.304;2023-04-09T17:57:47;99868.69;;;7.98;39.51
74913;BME280;63878;55.624;37.304;2023-04-09T18:07:48;99871.66;;;7.79;39.47
74913;BME280;63878;55.624;37.304;2023-04-09T18:17:49;99891.31;;;7.33;39.99
74913;BME280;63878;55.624;37.304;2023-04-09T18:27:50;99878.59;;;7.12;40.85
74913;BME280;63878;55.624;37.304;2023-04-09T18:37:52;99879.47;;;7.40;40.55
74913;BME280;63878;55.624;37.304;2023-04-09T18:47:53;99868.75;;;7.43;40.15
74913;BME280;63878;55.624;37.304;2023-04-09T18:57:55;99875.63;;;7.45;40.13
74913;BME280;63878;55.624;37.304;2023-04-09T19:07:59;99879.13;;;7.32;40.99
74913;BME280;63878;55.624;37.304;2023-04-09T19:17:59;99871.31;;;7.44;40.87
74913;BME280;63878;55.624;37.304;2023-04-09T19:28:00;99878.97;;;7.47;40.87
74913;BME280;63878;55.624;37.304;2023-04-09T19:38:01;99875.66;;;7.31;40.40
74913;BME280;63878;55.624;37.304;2023-04-09T19:48:03;99874.38;;;6.95;41.31
74913;BME280;63878;55.624;37.304;2023-04-09T19:58:04;99875.69;;;6.88;40.41
74913;BME280;63878;55.624;37.304;2023-04-09T20:08:04;99875.75;;;6.58;40.62
74913;BME280;63878;55.624;37.304;2023-04-09T20:18:05;99875.50;;;6.33;40.15
74913;BME280;63878;55.624;37.304;2023-04-09T20:28:05;99869.91;;;6.53;39.55
74913;BME280;63878;55.624;37.304;2023-04-09T20:38:06;99860.53;;;6.49;39.93
74913;BME280;63878;55.624;37.304;2023-04-09T20:48:06;99872.31;;;6.42;40.73
74913;BME280;63878;55.624;37.304;2023-04-09T20:58:07;99878.50;;;6.27;40.20
74913;BME280;63878;55.624;37.304;2023-04-09T21:08:07;99885.97;;;6.18;40.01
74913;BME280;63878;55.624;37.304;2023-04-09T21:18:08;99889.78;;;6.13;40.18
74913;BME280;63878;55.624;37.304;2023-04-09T21:28:08;99897.34;;;5.87;41.27
74913;BME280;63878;55.624;37.304;2023-04-09T21:38:09;99868.56;;;5.56;42.16
74913;BME280;63878;55.624;37.304;2023-04-09T21:48:10;99887.06;;;5.84;41.23
74913;BME280;63878;55.624;37.304;2023-04-09T21:58:11;99879.53;;;5.78;40.95
74913;BME280;63878;55.624;37.304;2023-04-09T22:08:12;99884.63;;;5.50;42.04
74913;BME280;63878;55.624;37.304;2023-04-09T22:18:13;99890.72;;;5.50;40.95
74913;BME280;63878;55.624;37.304;2023-04-09T22:28:13;99897.13;;;5.60;41.66
74913;BME280;63878;55.624;37.304;2023-04-09T22:38:14;99880.81;;;5.71;41.13
74913;BME280;63878;55.624;37.304;2023-04-09T22:48:15;99884.78;;;5.62;40.41
74913;BME280;63878;55.624;37.304;2023-04-09T22:58:16;99885.88;;;5.43;40.86
74913;BME280;63878;55.624;37.304;2023-04-09T23:08:16;99878.28;;;5.54;40.25
74913;BME280;63878;55.624;37.304;2023-04-09T23:18:18;99878.97;;;4.93;41.82
74913;BME280;63878;55.624;37.304;2023-04-09T23:28:19;99885.06;;;5.09;42.01
74913;BME280;63878;55.624;37.304;2023-04-09T23:38:19;99877.91;;;5.13;41.56
74913;BME280;63878;55.624;37.304;2023-04-09T23:48:20;99880.88;;;5.06;41.16
74913;BME280;63878;55.624;37.304;2023-04-09T23:58:21;99880.03;;;5.06;41.42
